Arnett, Texas
Current Conditions -  °F | °C
As of 6:15 PM on Monday 20 Oct 2014 (Local Time) from KGOP Reporting Station
Clear Clear  
Wind Chill: 77°   Ceiling: Unl
Heat Index: 79°   Visibility: 10mi
Dew Point: 57°   Wind: 0mph
Humidity: 50%   Direction: NA
Pressure: 30.02"   Gusts: NA
Location:  31.392°N, 97.7452°W
Report Text: KGOP 202315Z AUTO 00000KT 10SM CLR 25/14 A3002 RMK AO2
Loading
Personal Weather Stations






























Interactive Weather Map
Tropical Storm Tracking
New forecast layout! Learn more

10-Day Weather Forecast

Advertisements
Track Severe Weather on mobile